Aviation Digital Data Service (ADDS)

Output produced by METARs form (0424 UTC 08 July 2015)
found at http://aviationweather.gov/adds/metars/
 
KLCH 080353Z AUTO 14006KT 10SM CLR 26/24 A3007 RMK AO2 SLP190 T02610239